Time;durP1;ratioP1;P1;durP2;ratioP2;P2;SDS_P1;SDS_P2;PMS_P1;PMS_P2;Temp;Humidity;BMP_temperature;BMP_pressure;BME280_temperature;BME280_humidity;BME280_pressure;Samples;Min_cycle;Max_cycle;Signal;HPM_P1;HPM_P2
2022/06/25 00:01:12;;;;;;;23.70;21.17;;;18.40;99.90;;;;;;5115914;27;20084;-77
2022/06/25 00:03:39;;;;;;;23.80;21.13;;;18.40;99.90;;;;;;5109745;27;20047;-77
2022/06/25 00:06:05;;;;;;;22.17;18.98;;;18.40;99.90;;;;;;5117396;27;20047;-77
2022/06/25 00:08:32;;;;;;;21.05;18.85;;;18.30;99.90;;;;;;5133685;27;20043;-77
2022/06/25 00:10:57;;;;;;;19.73;17.27;;;18.30;99.90;;;;;;5115882;27;20039;-77
2022/06/25 00:13:23;;;;;;;20.13;18.02;;;18.30;99.90;;;;;;5133765;27;20383;-77
2022/06/25 00:15:49;;;;;;;19.05;17.02;;;18.30;99.90;;;;;;5134084;27;20062;-77
2022/06/25 00:18:15;;;;;;;19.67;17.77;;;18.20;99.90;;;;;;5115819;27;20046;-77
2022/06/25 00:20:42;;;;;;;18.92;16.92;;;18.20;99.90;;;;;;5115092;27;20050;-77
2022/06/25 00:23:08;;;;;;;17.15;15.40;;;18.20;99.90;;;;;;5115807;27;20043;-77
2022/06/25 00:25:34;;;;;;;16.90;15.20;;;18.20;99.90;;;;;;5115665;27;20039;-77
2022/06/25 00:28:00;;;;;;;16.58;14.70;;;18.20;99.90;;;;;;5132265;27;20413;-77
2022/06/25 00:30:27;;;;;;;16.80;14.23;;;18.10;99.90;;;;;;5091323;27;20112;-77
2022/06/25 00:32:52;;;;;;;16.20;14.25;;;18.10;99.90;;;;;;5113963;27;20471;-77
2022/06/25 00:35:18;;;;;;;15.95;14.43;;;18.10;99.90;;;;;;5133101;27;20042;-76
2022/06/25 00:37:44;;;;;;;14.98;13.45;;;18.10;99.90;;;;;;5131538;27;20039;-77
2022/06/25 00:40:10;;;;;;;14.35;12.82;;;18.00;99.90;;;;;;5096308;27;20039;-77
2022/06/25 00:42:36;;;;;;;15.05;13.20;;;18.00;99.90;;;;;;5113700;27;20866;-77
2022/06/25 00:45:02;;;;;;;13.35;12.05;;;18.00;99.90;;;;;;5134134;27;20121;-77
2022/06/25 00:47:28;;;;;;;14.45;12.95;;;18.00;99.90;;;;;;5114480;27;20475;-77
2022/06/25 00:49:54;;;;;;;13.75;12.38;;;18.00;99.90;;;;;;5126655;27;20117;-77
2022/06/25 00:52:22;;;;;;;14.20;12.80;;;18.00;99.90;;;;;;5130385;27;20513;-77
2022/06/25 00:55:16;;;;;;;13.27;11.98;;;17.90;99.90;;;;;;5095443;27;20043;-77
2022/06/25 00:57:43;;;;;;;13.52;12.18;;;17.90;99.90;;;;;;5125356;27;20489;-77
2022/06/25 01:00:14;;;;;;;13.27;11.98;;;17.90;99.90;;;;;;5115028;27;20051;-77
2022/06/25 01:02:41;;;;;;;12.32;11.10;;;17.90;99.90;;;;;;5115008;27;20483;-77
2022/06/25 01:05:09;;;;;;;11.77;10.70;;;17.90;99.90;;;;;;5097548;27;20427;-77
2022/06/25 01:07:36;;;;;;;12.18;10.98;;;17.80;99.90;;;;;;5095001;27;20385;-77
2022/06/25 01:10:02;;;;;;;14.32;10.18;;;17.80;99.90;;;;;;5131316;27;20083;-77
2022/06/25 01:12:28;;;;;;;11.35;10.02;;;17.80;99.90;;;;;;5132428;27;20035;-77
2022/06/25 01:15:09;;;;;;;11.23;10.07;;;17.80;99.90;;;;;;5130466;27;20042;-77
2022/06/25 01:17:44;;;;;;;11.88;9.73;;;17.80;99.90;;;;;;5091554;28;20050;-77
2022/06/25 01:20:11;;;;;;;14.00;9.88;;;17.80;99.90;;;;;;5110461;27;20058;-77
2022/06/25 01:22:36;;;;;;;11.38;10.05;;;17.80;99.90;;;;;;5110288;27;20050;-77
2022/06/25 01:25:03;;;;;;;10.68;9.55;;;17.80;99.90;;;;;;5095193;27;20400;-77
2022/06/25 01:27:28;;;;;;;9.73;8.80;;;17.70;99.90;;;;;;5095561;27;20050;-77
2022/06/25 01:29:54;;;;;;;10.35;9.25;;;17.70;99.90;;;;;;5112198;27;20043;-78
2022/06/25 01:32:20;;;;;;;11.48;9.70;;;17.70;99.90;;;;;;5086096;28;20040;-75
2022/06/25 01:34:45;;;;;;;9.90;8.90;;;17.70;99.90;;;;;;5099873;27;20544;-77
2022/06/25 01:37:11;;;;;;;10.40;9.10;;;17.70;99.90;;;;;;5099397;28;20071;-77
2022/06/25 01:39:37;;;;;;;10.13;8.85;;;17.70;99.90;;;;;;5112749;27;20042;-77
2022/06/25 01:42:03;;;;;;;10.85;8.38;;;17.60;99.90;;;;;;5114650;27;20043;-77
2022/06/25 01:44:29;;;;;;;9.98;8.82;;;17.60;99.90;;;;;;5098175;27;20055;-77
2022/06/25 01:46:56;;;;;;;9.95;8.95;;;17.60;99.90;;;;;;5131172;27;20436;-75
2022/06/25 01:49:22;;;;;;;10.68;8.77;;;17.60;99.90;;;;;;5130607;27;20027;-77
2022/06/25 01:51:48;;;;;;;10.45;9.45;;;17.60;99.90;;;;;;5112703;28;20040;-77
2022/06/25 01:54:14;;;;;;;9.32;8.38;;;17.60;99.90;;;;;;5130514;28;20035;-77
2022/06/25 01:56:39;;;;;;;10.10;8.80;;;17.60;99.90;;;;;;5113375;28;20039;-77
2022/06/25 01:59:05;;;;;;;9.07;8.27;;;17.60;99.90;;;;;;5095281;28;20130;-75
2022/06/25 02:01:31;;;;;;;8.48;7.68;;;17.50;99.90;;;;;;5121063;28;20077;-77
2022/06/25 02:03:56;;;;;;;10.35;8.48;;;17.50;99.90;;;;;;5128566;28;20050;-75
2022/06/25 02:06:22;;;;;;;8.57;7.70;;;17.50;99.90;;;;;;5128344;28;20176;-75
2022/06/25 02:08:48;;;;;;;9.82;7.75;;;17.40;99.90;;;;;;5119137;28;20099;-75
2022/06/25 02:11:13;;;;;;;8.80;7.90;;;17.40;99.90;;;;;;5095506;28;20069;-77
2022/06/25 02:13:39;;;;;;;8.38;7.57;;;17.10;99.90;;;;;;5098560;27;20035;-75
2022/06/25 02:16:05;;;;;;;8.48;7.75;;;17.40;99.90;;;;;;5128597;27;20027;-76
2022/06/25 02:18:31;;;;;;;8.70;7.80;;;17.40;99.90;;;;;;5098956;27;20104;-77
2022/06/25 02:20:57;;;;;;;8.77;7.88;;;17.30;99.90;;;;;;5093962;27;20074;-76
2022/06/25 02:23:23;;;;;;;8.45;7.65;;;17.30;99.90;;;;;;5100796;27;20039;-76
2022/06/25 02:25:49;;;;;;;8.70;7.82;;;17.30;99.90;;;;;;5117828;27;20035;-76
2022/06/25 02:28:16;;;;;;;8.57;7.53;;;17.30;99.90;;;;;;5117098;27;20043;-76
2022/06/25 02:30:43;;;;;;;8.00;7.20;;;17.30;99.90;;;;;;5114819;27;20495;-76
2022/06/25 02:33:11;;;;;;;9.45;7.65;;;17.20;99.90;;;;;;5134410;27;20078;-76
2022/06/25 02:35:39;;;;;;;8.35;7.55;;;17.20;99.90;;;;;;5091527;28;20100;-76
2022/06/25 02:38:05;;;;;;;7.90;6.95;;;17.20;99.90;;;;;;5116784;27;20509;-76
2022/06/25 02:40:31;;;;;;;8.05;7.18;;;17.20;99.90;;;;;;5131529;27;20066;-76
2022/06/25 02:42:56;;;;;;;8.85;7.45;;;17.20;99.90;;;;;;5096733;27;20128;-76
2022/06/25 02:45:22;;;;;;;9.82;8.82;;;17.20;99.90;;;;;;5117980;27;20051;-76
2022/06/25 02:47:48;;;;;;;7.60;6.80;;;17.20;99.90;;;;;;5111936;27;20035;-76
2022/06/25 02:50:14;;;;;;;8.50;7.70;;;17.20;99.90;;;;;;5117395;27;20039;-76
2022/06/25 02:52:40;;;;;;;7.93;7.22;;;17.10;99.90;;;;;;5115667;27;20406;-76
2022/06/25 02:55:06;;;;;;;8.18;7.47;;;17.10;99.90;;;;;;5110332;27;20091;-76
2022/06/25 03:00:16;;;;;;;7.75;7.00;;;17.10;99.90;;;;;;5119107;27;20096;-76
2022/06/25 03:02:42;;;;;;;7.70;7.00;;;17.00;99.90;;;;;;5117543;27;20043;-76
2022/06/25 03:05:09;;;;;;;7.57;6.75;;;17.00;99.90;;;;;;5133539;27;20502;-76
2022/06/25 03:07:35;;;;;;;8.80;7.47;;;17.00;99.90;;;;;;5103879;28;20051;-85
2022/06/25 03:10:01;;;;;;;7.57;6.60;;;17.00;99.90;;;;;;5094378;27;20039;-84
2022/06/25 03:12:26;;;;;;;7.40;6.78;;;17.00;99.90;;;;;;5119502;27;20130;-85
2022/06/25 03:14:52;;;;;;;7.80;6.97;;;17.00;99.90;;;;;;5113076;28;20507;-84
2022/06/25 03:17:18;;;;;;;7.95;6.93;;;17.00;99.90;;;;;;5071116;28;20036;-84
2022/06/25 03:19:43;;;;;;;7.35;6.65;;;17.00;99.90;;;;;;5098399;28;20529;-84
2022/06/25 03:22:09;;;;;;;9.02;7.05;;;17.00;99.90;;;;;;5116932;27;20039;-85
2022/06/25 03:24:35;;;;;;;8.15;7.35;;;17.00;99.90;;;;;;5118916;27;20039;-85
2022/06/25 03:27:01;;;;;;;8.27;7.45;;;16.90;99.90;;;;;;5087846;28;20058;-85
2022/06/25 03:29:27;;;;;;;8.57;7.57;;;16.90;99.90;;;;;;5112852;27;20039;-85
2022/06/25 03:31:52;;;;;;;8.55;6.97;;;16.90;99.90;;;;;;5093123;27;20051;-85
2022/06/25 03:34:18;;;;;;;7.60;6.90;;;16.90;99.90;;;;;;5085836;28;20048;-85
2022/06/25 03:36:44;;;;;;;7.95;7.07;;;16.90;99.90;;;;;;5093601;27;20036;-85
2022/06/25 03:39:09;;;;;;;7.63;6.85;;;16.90;99.90;;;;;;5115341;27;20046;-85
2022/06/25 03:41:38;;;;;;;7.45;6.65;;;16.90;99.90;;;;;;5079000;27;20060;-85
2022/06/25 03:44:06;;;;;;;8.32;6.35;;;16.90;99.90;;;;;;5114568;27;20039;-85
2022/06/25 03:46:33;;;;;;;7.38;6.68;;;16.90;99.90;;;;;;5109491;28;20040;-85
2022/06/25 03:48:59;;;;;;;8.20;6.95;;;16.90;99.90;;;;;;5107097;28;20373;-85
2022/06/25 03:51:26;;;;;;;8.75;6.97;;;17.00;99.90;;;;;;5111187;27;20039;-85
2022/06/25 03:53:52;;;;;;;7.55;6.85;;;16.90;99.90;;;;;;5100092;27;20087;-85
2022/06/25 03:56:18;;;;;;;7.18;6.53;;;17.00;99.90;;;;;;5098709;27;20122;-85
2022/06/25 03:58:44;;;;;;;8.27;7.47;;;17.00;99.90;;;;;;5113506;27;20119;-85
2022/06/25 04:01:09;;;;;;;7.20;6.47;;;17.00;99.90;;;;;;5120593;27;20035;-85
2022/06/25 04:03:35;;;;;;;7.88;6.72;;;17.00;99.90;;;;;;5115742;27;20064;-84
2022/06/25 04:06:02;;;;;;;6.60;5.85;;;17.00;99.90;;;;;;5102188;27;20039;-85
2022/06/25 04:08:27;;;;;;;8.75;6.68;;;17.00;99.90;;;;;;5116340;27;20039;-85
2022/06/25 04:10:53;;;;;;;7.68;6.25;;;17.00;99.90;;;;;;5087470;27;20125;-85
2022/06/25 04:13:19;;;;;;;7.40;6.35;;;17.00;99.90;;;;;;5100605;27;20429;-84
2022/06/25 04:15:45;;;;;;;8.35;6.10;;;17.00;99.90;;;;;;5101475;27;20525;-85
2022/06/25 04:18:11;;;;;;;8.05;6.10;;;17.00;99.90;;;;;;5100508;27;20070;-85
2022/06/25 04:20:37;;;;;;;8.30;6.88;;;17.00;99.90;;;;;;5117759;27;20039;-85
2022/06/25 04:23:03;;;;;;;7.50;6.55;;;17.10;99.90;;;;;;5111669;28;20055;-85
2022/06/25 04:25:29;;;;;;;7.65;6.40;;;17.10;99.90;;;;;;5115938;27;20487;-85
2022/06/25 04:30:39;;;;;;;11.07;7.32;;;17.10;99.90;;;;;;5090109;27;20054;-85
2022/06/25 04:33:05;;;;;;;9.05;7.18;;;17.10;99.90;;;;;;5101883;27;20039;-85
2022/06/25 04:35:30;;;;;;;8.40;7.40;;;17.20;99.90;;;;;;5075781;27;20471;-85
2022/06/25 04:37:56;;;;;;;8.77;7.00;;;17.20;99.90;;;;;;5088856;28;20074;-85
2022/06/25 04:40:22;;;;;;;7.60;6.82;;;17.20;99.90;;;;;;5099007;27;20039;-84
2022/06/25 04:42:47;;;;;;;8.18;7.30;;;17.20;99.90;;;;;;5110321;28;20043;-85
2022/06/25 04:45:13;;;;;;;7.68;6.53;;;17.30;99.90;;;;;;5092757;27;20049;-85
2022/06/25 04:47:39;;;;;;;8.77;6.78;;;17.30;99.90;;;;;;5119219;27;20508;-85
2022/06/25 04:50:08;;;;;;;8.95;6.55;;;17.30;99.90;;;;;;5101368;27;20038;-86
2022/06/25 04:52:34;;;;;;;8.77;6.68;;;17.30;99.90;;;;;;5095859;27;20039;-85
2022/06/25 04:54:59;;;;;;;7.18;6.57;;;17.40;99.90;;;;;;5100710;27;20035;-85
2022/06/25 04:57:25;;;;;;;8.55;7.15;;;17.40;99.90;;;;;;5099385;27;20046;-85
2022/06/25 04:59:51;;;;;;;7.15;6.45;;;17.40;99.90;;;;;;5114872;27;20043;-85
2022/06/25 05:02:17;;;;;;;9.43;7.53;;;17.50;99.90;;;;;;5095716;28;20070;-85
2022/06/25 05:04:42;;;;;;;7.43;6.72;;;17.40;99.90;;;;;;5082165;28;20046;-85
2022/06/25 05:07:08;;;;;;;7.93;7.13;;;17.50;99.90;;;;;;5107776;27;20423;-85
2022/06/25 05:09:34;;;;;;;7.75;6.82;;;17.50;99.90;;;;;;5117339;27;20397;-85
2022/06/25 05:12:00;;;;;;;11.35;6.57;;;17.60;99.90;;;;;;5102039;27;20037;-85
2022/06/25 05:14:25;;;;;;;7.03;6.32;;;17.60;99.90;;;;;;5090939;27;20023;-85
2022/06/25 05:16:53;;;;;;;7.72;6.93;;;17.60;99.90;;;;;;5085520;28;20428;-85
2022/06/25 05:19:18;;;;;;;7.43;6.72;;;17.70;99.90;;;;;;5085629;27;20035;-85
2022/06/25 05:21:44;;;;;;;9.20;6.40;;;17.70;99.90;;;;;;5096338;27;20513;-85
2022/06/25 05:24:10;;;;;;;7.70;6.90;;;17.80;99.90;;;;;;5108644;27;20475;-85
2022/06/25 05:26:35;;;;;;;7.88;5.97;;;17.80;99.90;;;;;;5069223;27;20087;-85
2022/06/25 05:29:01;;;;;;;11.75;6.72;;;17.90;99.90;;;;;;5073439;28;20154;-86
2022/06/25 05:31:27;;;;;;;6.13;5.53;;;17.90;99.90;;;;;;5092258;27;20055;-85
2022/06/25 05:33:53;;;;;;;7.10;5.68;;;17.90;99.90;;;;;;5097861;27;20094;-85
2022/06/25 05:36:18;;;;;;;6.63;5.25;;;18.00;99.90;;;;;;5108011;28;20504;-85
2022/06/25 05:38:44;;;;;;;6.35;5.38;;;18.10;99.90;;;;;;5114699;27;20038;-85
2022/06/25 05:41:10;;;;;;;5.95;5.32;;;18.10;99.90;;;;;;5077420;27;20484;-85
2022/06/25 05:43:36;;;;;;;7.15;5.65;;;18.20;99.90;;;;;;5118128;27;20100;-85
2022/06/25 05:46:03;;;;;;;8.35;5.43;;;18.20;99.90;;;;;;5092921;27;20054;-85
2022/06/25 05:48:29;;;;;;;7.43;5.25;;;18.30;99.90;;;;;;5109010;27;20071;-85
2022/06/25 05:50:55;;;;;;;7.95;5.40;;;18.40;99.90;;;;;;5091149;27;20042;-85
2022/06/25 05:53:21;;;;;;;7.63;6.32;;;18.40;99.90;;;;;;5098804;28;20100;-85
2022/06/25 05:55:47;;;;;;;8.02;5.03;;;18.40;99.90;;;;;;5113863;28;20039;-85
2022/06/25 05:58:12;;;;;;;6.35;4.95;;;18.40;99.90;;;;;;5116573;28;20035;-85
2022/06/25 06:00:39;;;;;;;8.25;5.22;;;18.50;99.90;;;;;;5082318;28;20043;-86
2022/06/25 06:03:05;;;;;;;7.38;5.50;;;18.50;99.90;;;;;;5118806;28;20043;-86
2022/06/25 06:05:31;;;;;;;5.20;4.70;;;18.60;99.90;;;;;;5114341;28;20031;-84
2022/06/25 06:07:57;;;;;;;6.40;4.95;;;18.70;99.90;;;;;;5108436;28;20463;-85
2022/06/25 06:10:22;;;;;;;5.15;4.18;;;18.70;99.90;;;;;;5118217;28;20042;-86
2022/06/25 06:12:48;;;;;;;5.05;4.40;;;18.90;99.90;;;;;;5118020;28;20066;-85
2022/06/25 06:15:14;;;;;;;7.43;4.40;;;18.90;99.90;;;;;;5101356;28;20139;-85
2022/06/25 06:17:40;;;;;;;6.13;4.30;;;19.00;99.90;;;;;;5117876;28;20402;-84
2022/06/25 06:20:07;;;;;;;6.72;3.80;;;19.10;99.90;;;;;;5117815;28;20039;-85
2022/06/25 06:22:33;;;;;;;5.90;3.88;;;19.20;99.90;;;;;;5120618;28;20135;-84
2022/06/25 06:24:58;;;;;;;7.05;3.95;;;19.30;99.90;;;;;;5111755;28;20072;-86
2022/06/25 06:27:24;;;;;;;8.98;3.88;;;19.40;99.90;;;;;;5118812;28;20023;-85
2022/06/25 06:29:50;;;;;;;4.75;3.80;;;19.50;99.90;;;;;;5113959;28;20042;-86
2022/06/25 06:32:16;;;;;;;4.20;3.78;;;19.60;99.90;;;;;;5111024;28;20044;-86
2022/06/25 06:34:43;;;;;;;6.70;3.38;;;19.70;99.90;;;;;;5117325;28;20043;-85
2022/06/25 06:37:09;;;;;;;6.45;3.50;;;19.80;99.90;;;;;;5115865;28;20036;-85
2022/06/25 06:39:35;;;;;;;8.23;3.70;;;19.90;99.90;;;;;;5118137;28;20086;-86
2022/06/25 06:42:00;;;;;;;5.57;3.00;;;20.10;99.90;;;;;;5114305;28;20051;-84
2022/06/25 06:44:26;;;;;;;4.40;3.00;;;20.20;99.90;;;;;;5098637;28;20501;-86
2022/06/25 06:46:52;;;;;;;3.47;2.50;;;20.20;99.90;;;;;;5106188;28;20503;-86
2022/06/25 06:49:18;;;;;;;6.72;2.80;;;20.30;99.90;;;;;;5061087;28;20472;-85
2022/06/25 06:51:43;;;;;;;4.00;2.70;;;20.30;99.90;;;;;;5087624;28;20043;-86
2022/06/25 06:54:09;;;;;;;5.60;3.10;;;20.40;99.90;;;;;;5072121;28;20036;-87
2022/06/25 06:56:35;;;;;;;5.32;3.08;;;20.50;99.90;;;;;;5090724;28;20035;-87
2022/06/25 06:59:00;;;;;;;4.18;2.97;;;20.50;99.90;;;;;;5112295;27;20179;-86
2022/06/25 07:01:26;;;;;;;5.32;3.15;;;20.60;99.90;;;;;;5098671;27;21015;-89
2022/06/25 07:03:53;;;;;;;3.42;2.72;;;20.70;99.90;;;;;;5096890;27;20050;-87
2022/06/25 07:06:19;;;;;;;5.28;2.72;;;20.80;99.90;;;;;;5116169;27;20049;-88
2022/06/25 07:08:44;;;;;;;4.18;3.00;;;20.90;99.90;;;;;;5107584;27;20114;-88
2022/06/25 07:11:28;;;;;;;6.22;3.22;;;21.10;99.90;;;;;;5093936;27;20063;-86
2022/06/25 07:14:04;;;;;;;6.28;3.08;;;21.20;99.90;;;;;;5089309;27;20032;-86
2022/06/25 07:16:31;;;;;;;5.93;2.95;;;21.30;99.90;;;;;;5099385;27;20040;-88
2022/06/25 07:18:58;;;;;;;5.13;3.08;;;21.30;99.90;;;;;;5080790;27;20043;-88
2022/06/25 07:21:25;;;;;;;4.65;3.00;;;21.40;99.90;;;;;;5075713;28;20050;-88
2022/06/25 07:23:51;;;;;;;5.82;2.95;;;21.50;99.90;;;;;;5103608;27;20031;-88
2022/06/25 07:26:18;;;;;;;4.18;3.00;;;21.60;99.90;;;;;;5108245;27;20589;-88
2022/06/25 07:28:43;;;;;;;4.15;2.90;;;21.70;99.90;;;;;;5094006;28;20047;-88
2022/06/25 07:31:09;;;;;;;4.25;2.90;;;21.90;99.90;;;;;;5093450;27;20061;-88
2022/06/25 07:33:35;;;;;;;5.80;2.95;;;22.00;99.90;;;;;;5118258;27;20031;-89
2022/06/25 07:36:00;;;;;;;3.50;2.90;;;22.20;99.90;;;;;;5118137;27;20434;-87
2022/06/25 07:38:26;;;;;;;6.65;3.05;;;22.30;99.90;;;;;;5114816;27;20112;-88
2022/06/25 07:40:52;;;;;;;5.10;2.50;;;22.50;99.90;;;;;;5067448;27;20047;-79
2022/06/25 07:43:18;;;;;;;5.43;2.40;;;22.80;99.90;;;;;;5073876;28;20035;-77
2022/06/25 07:45:43;;;;;;;4.75;2.92;;;23.10;99.90;;;;;;5081277;28;20373;-77
2022/06/25 07:48:09;;;;;;;4.53;2.25;;;23.30;99.90;;;;;;5051490;28;20120;-78
2022/06/25 07:53:19;;;;;;;3.10;1.92;;;23.80;99.90;;;;;;5096743;28;20085;-77
2022/06/25 07:55:45;;;;;;;7.28;2.00;;;24.10;99.90;;;;;;5107690;27;20039;-77
2022/06/25 07:58:12;;;;;;;3.78;2.10;;;24.30;99.90;;;;;;5106492;27;20046;-78
2022/06/25 08:00:38;;;;;;;4.40;2.00;;;24.40;99.90;;;;;;5116916;27;20085;-77
2022/06/25 08:03:04;;;;;;;5.32;1.95;;;24.50;99.90;;;;;;5066782;27;20039;-78
2022/06/25 08:05:29;;;;;;;6.25;2.17;;;24.40;99.90;;;;;;5093794;28;20089;-78
2022/06/25 08:07:55;;;;;;;5.82;2.05;;;24.30;99.90;;;;;;5065597;28;20067;-78
2022/06/25 08:10:22;;;;;;;7.03;2.80;;;24.30;99.90;;;;;;5062862;28;20037;-78
2022/06/25 08:12:48;;;;;;;7.68;2.60;;;24.40;99.90;;;;;;5086232;27;20038;-78
2022/06/25 08:15:14;;;;;;;7.30;2.10;;;24.20;99.90;;;;;;5082403;27;20038;-78
2022/06/25 08:17:40;;;;;;;5.93;2.03;;;24.10;99.90;;;;;;5100105;27;20068;-78
2022/06/25 08:20:07;;;;;;;5.18;2.28;;;24.10;99.90;;;;;;5095161;28;20043;-78
2022/06/25 08:22:32;;;;;;;4.65;2.42;;;24.20;99.90;;;;;;5064242;27;20069;-78
2022/06/25 08:24:58;;;;;;;3.65;1.90;;;24.40;99.90;;;;;;5072921;28;20509;-78
2022/06/25 08:27:24;;;;;;;4.55;2.35;;;24.60;99.90;;;;;;5093812;27;20036;-77
2022/06/25 08:29:50;;;;;;;3.72;1.90;;;24.70;99.90;;;;;;5072781;27;20070;-79
2022/06/25 08:32:16;;;;;;;3.55;2.15;;;24.90;99.90;;;;;;5099816;27;20067;-78
2022/06/25 08:34:41;;;;;;;4.43;2.28;;;25.10;99.90;;;;;;5079276;28;20089;-79
2022/06/25 08:37:07;;;;;;;4.18;1.83;;;25.20;99.90;;;;;;5097659;27;20036;-77
2022/06/25 08:39:33;;;;;;;2.92;2.00;;;25.30;99.90;;;;;;5102388;28;20361;-78
2022/06/25 08:42:03;;;;;;;3.67;1.73;;;25.30;99.90;;;;;;5091548;28;20048;-78
2022/06/25 08:44:33;;;;;;;3.67;1.73;;;25.40;99.90;;;;;;5078984;28;20475;-78
2022/06/25 08:46:59;;;;;;;4.45;1.85;;;25.40;99.90;;;;;;5094447;27;20035;-78
2022/06/25 08:49:26;;;;;;;4.95;1.75;;;25.30;99.90;;;;;;5116102;27;20042;-78
2022/06/25 08:51:57;;;;;;;3.40;1.60;;;25.10;99.90;;;;;;5115818;27;20054;-78
2022/06/25 08:54:25;;;;;;;2.85;1.75;;;24.90;99.90;;;;;;5064097;28;20051;-78
2022/06/25 08:56:51;;;;;;;3.33;1.60;;;24.80;99.90;;;;;;5121370;27;20073;-77
2022/06/25 08:59:17;;;;;;;2.45;1.42;;;24.80;99.90;;;;;;5091496;27;20415;-78
2022/06/25 09:01:44;;;;;;;3.00;1.55;;;24.80;99.90;;;;;;5079058;28;20096;-78
2022/06/25 09:04:10;;;;;;;3.65;1.40;;;24.90;99.90;;;;;;5089781;27;20046;-78
2022/06/25 09:06:36;;;;;;;3.80;1.42;;;25.00;99.90;;;;;;5083725;27;20043;-78
2022/06/25 09:09:15;;;;;;;2.47;1.27;;;25.00;99.90;;;;;;5114651;27;20039;-78
2022/06/25 09:12:12;;;;;;;3.05;1.40;;;25.00;99.90;;;;;;5118246;27;20613;-78
2022/06/25 09:14:38;;;;;;;3.20;1.55;;;25.00;99.90;;;;;;5061649;28;20051;-78
2022/06/25 09:17:12;;;;;;;3.47;1.10;;;24.90;99.90;;;;;;5133925;27;20149;-78
2022/06/25 09:19:47;;;;;;;3.73;1.30;;;24.70;99.90;;;;;;5100884;28;20399;-78
2022/06/25 09:22:20;;;;;;;2.83;1.30;;;24.70;99.90;;;;;;5094871;28;20050;-78
2022/06/25 09:24:55;;;;;;;3.05;1.20;;;24.80;99.90;;;;;;5129215;27;20407;-78
2022/06/25 09:27:36;;;;;;;;;;;25.00;99.90;;;;;;5132910;27;20035;-77
2022/06/25 09:30:14;;;;;;;3.03;1.38;;;25.20;99.90;;;;;;5112905;27;19919;-78
2022/06/25 09:33:01;;;;;;;2.22;0.90;;;25.20;99.90;;;;;;5115427;27;20483;-77
2022/06/25 09:35:32;;;;;;;1.27;0.85;;;24.90;99.90;;;;;;5114754;27;20039;-77
2022/06/25 09:38:04;;;;;;;3.30;1.23;;;24.80;99.90;;;;;;5094656;28;20070;-78
2022/06/25 09:40:30;;;;;;;2.17;1.13;;;24.60;99.90;;;;;;5108749;27;20054;-78
2022/06/25 09:42:57;;;;;;;2.78;1.35;;;24.50;99.90;;;;;;5110950;27;20051;-78
2022/06/25 09:45:23;;;;;;;4.10;1.52;;;24.40;99.90;;;;;;5096634;28;20043;-78
2022/06/25 09:47:49;;;;;;;3.58;1.25;;;24.40;99.90;;;;;;5126299;27;20046;-78
2022/06/25 09:50:19;;;;;;;4.60;1.42;;;24.40;99.90;;;;;;5094118;28;20067;-77
2022/06/25 09:52:57;;;;;;;2.67;1.00;;;24.40;99.90;;;;;;5112671;28;20135;-77
2022/06/25 09:55:25;;;;;;;3.30;1.10;;;24.40;99.90;;;;;;5127009;27;20483;-77
2022/06/25 09:57:52;;;;;;;1.98;1.10;;;24.40;99.90;;;;;;5111901;28;20052;-77
2022/06/25 10:00:19;;;;;;;2.53;1.33;;;24.40;99.90;;;;;;5124845;28;20510;-78
2022/06/25 10:02:48;;;;;;;2.42;1.20;;;24.30;99.90;;;;;;5097779;28;20046;-78
2022/06/25 10:05:23;;;;;;;2.20;1.10;;;24.30;99.90;;;;;;5100599;28;20372;-78
2022/06/25 10:07:59;;;;;;;3.17;1.27;;;24.30;99.90;;;;;;5130780;28;20043;-78
2022/06/25 10:10:48;;;;;;;3.30;1.27;;;24.20;99.90;;;;;;5128820;28;20035;-78
2022/06/25 10:13:15;;;;;;;3.20;1.73;;;24.20;99.90;;;;;;5115228;28;20051;-78
2022/06/25 10:15:41;;;;;;;2.35;1.20;;;24.10;99.90;;;;;;5114823;28;20035;-79
2022/06/25 10:18:11;;;;;;;3.33;1.40;;;24.20;99.90;;;;;;5105759;28;20129;-80
2022/06/25 10:20:41;;;;;;;3.47;1.40;;;24.40;99.90;;;;;;5099956;28;20041;-80
2022/06/25 10:23:09;;;;;;;2.42;1.35;;;24.60;99.90;;;;;;5106105;28;20054;-79
2022/06/25 10:25:36;;;;;;;3.35;1.23;;;24.80;99.90;;;;;;5100058;28;20134;-79
2022/06/25 10:28:04;;;;;;;5.78;1.60;;;24.80;99.90;;;;;;5127650;28;20050;-79
2022/06/25 10:30:47;;;;;;;1.73;1.30;;;24.70;99.90;;;;;;5090831;28;20048;-79
2022/06/25 10:33:18;;;;;;;2.83;1.50;;;24.70;99.90;;;;;;5088969;28;20085;-79
2022/06/25 10:35:44;;;;;;;2.45;1.23;;;24.70;99.90;;;;;;5102497;28;20067;-82
2022/06/25 10:38:16;;;;;;;2.78;1.10;;;24.80;99.90;;;;;;5098203;28;20032;-82
2022/06/25 10:40:47;;;;;;;5.10;2.00;;;24.80;99.90;;;;;;5110978;28;20051;-81
2022/06/25 10:43:49;;;;;;;2.80;1.60;;;24.70;99.90;;;;;;5114153;28;20096;-79
2022/06/25 10:46:24;;;;;;;1.88;1.30;;;24.60;99.90;;;;;;5099841;28;20043;-80
2022/06/25 10:49:22;;;;;;;2.15;1.30;;;24.40;99.90;;;;;;5100650;28;20047;-79
2022/06/25 10:51:49;;;;;;;3.00;1.65;;;24.30;99.90;;;;;;5099172;28;20427;-79
2022/06/25 10:54:36;;;;;;;2.95;1.20;;;24.10;99.90;;;;;;5112598;28;20031;-79
2022/06/25 10:57:04;;;;;;;2.22;1.20;;;24.00;99.90;;;;;;5104920;28;20040;-79
2022/06/25 11:02:28;;;;;;;4.68;1.50;;;23.70;99.90;;;;;;5101076;28;20039;-75
2022/06/25 11:04:54;;;;;;;2.88;1.73;;;23.50;99.90;;;;;;5095390;28;20399;-75
2022/06/25 11:07:25;;;;;;;4.15;2.00;;;23.30;99.90;;;;;;5107264;28;20043;-76
2022/06/25 11:10:02;;;;;;;3.83;1.90;;;23.00;99.90;;;;;;5114120;28;20039;-76
2022/06/25 11:12:34;;;;;;;2.35;1.80;;;22.70;99.90;;;;;;5092291;28;20438;-76
2022/06/25 11:15:02;;;;;;;4.60;1.90;;;22.60;99.90;;;;;;5102814;28;20506;-77
2022/06/25 11:17:30;;;;;;;3.05;2.28;;;22.40;99.90;;;;;;5106966;28;20132;-77
2022/06/25 11:20:09;;;;;;;4.60;2.00;;;22.20;99.90;;;;;;5101132;28;20583;-77
2022/06/25 11:22:49;;;;;;;2.03;1.77;;;22.20;99.90;;;;;;5079218;28;20585;-77
2022/06/25 11:30:44;;;;;;;5.75;3.25;;;22.30;99.90;;;;;;5100163;28;20066;-79
2022/06/25 11:33:10;;;;;;;3.88;2.30;;;22.60;99.90;;;;;;5086359;28;20052;-79
2022/06/25 11:35:40;;;;;;;3.53;1.88;;;22.70;99.90;;;;;;5080771;28;20040;-78
2022/06/25 11:38:16;;;;;;;5.13;2.30;;;22.80;99.90;;;;;;5113552;28;20514;-78
2022/06/25 11:40:42;;;;;;;3.75;1.80;;;22.80;99.90;;;;;;5110339;28;20502;-79
2022/06/25 11:43:09;;;;;;;4.82;2.20;;;22.80;99.90;;;;;;5097130;28;20071;-78
2022/06/25 11:45:56;;;;;;;3.55;2.20;;;22.80;99.90;;;;;;5084500;28;20051;-78
2022/06/25 11:48:30;;;;;;;1.92;1.73;;;22.80;99.90;;;;;;5089297;28;20039;-78
2022/06/25 11:51:01;;;;;;;3.30;1.90;;;22.70;99.90;;;;;;5081724;28;20036;-78
2022/06/25 11:53:27;;;;;;;3.17;2.13;;;22.70;99.90;;;;;;5087285;28;20073;-79
2022/06/25 11:55:56;;;;;;;4.50;2.08;;;22.70;99.90;;;;;;5084976;28;20072;-79
2022/06/25 11:58:22;;;;;;;3.15;2.17;;;22.60;99.90;;;;;;5084046;28;20092;-78
2022/06/25 12:00:47;;;;;;;4.38;2.35;;;22.60;99.90;;;;;;5079639;28;20040;-79
2022/06/25 12:03:14;;;;;;;5.70;2.53;;;22.50;99.90;;;;;;5049273;28;20047;-78
2022/06/25 12:05:40;;;;;;;4.20;2.60;;;22.50;99.90;;;;;;5084935;28;20130;-80
2022/06/25 12:08:09;;;;;;;3.40;2.58;;;22.50;99.90;;;;;;5106458;28;20126;-79
2022/06/25 12:10:35;;;;;;;3.47;2.40;;;22.50;99.90;;;;;;5105165;28;20498;-77
2022/06/25 12:13:01;;;;;;;3.90;2.42;;;22.40;99.90;;;;;;5098287;28;20031;-79
2022/06/25 12:15:30;;;;;;;5.55;2.42;;;22.40;99.90;;;;;;5081919;28;20483;-79
2022/06/25 12:18:04;;;;;;;2.42;1.95;;;22.40;99.90;;;;;;5102463;28;20495;-78
2022/06/25 12:20:30;;;;;;;4.53;2.15;;;22.40;99.90;;;;;;5109106;28;20079;-78
2022/06/25 12:22:57;;;;;;;2.40;1.85;;;22.50;99.90;;;;;;5113288;28;20387;-79
2022/06/25 12:25:35;;;;;;;2.83;1.88;;;22.60;99.90;;;;;;5101859;28;20399;-78
2022/06/25 12:28:01;;;;;;;2.63;1.83;;;22.70;99.90;;;;;;5078396;28;20447;-79
2022/06/25 12:30:32;;;;;;;3.17;1.80;;;22.90;99.90;;;;;;5091498;27;20137;-78
2022/06/25 12:33:14;;;;;;;3.58;1.77;;;23.10;99.90;;;;;;5082880;28;20424;-78
2022/06/25 12:35:42;;;;;;;2.90;1.77;;;23.40;99.90;;;;;;5089688;28;20395;-78
2022/06/25 12:38:10;;;;;;;1.77;1.48;;;23.60;99.90;;;;;;5083734;28;20047;-78
2022/06/25 12:40:43;;;;;;;2.45;1.75;;;23.80;99.90;;;;;;5085510;28;20138;-78
2022/06/25 12:43:11;;;;;;;2.03;1.45;;;24.00;99.90;;;;;;5086701;28;20048;-78
2022/06/25 12:45:39;;;;;;;3.22;1.70;;;24.10;99.90;;;;;;5108295;28;20052;-78
2022/06/25 12:48:07;;;;;;;3.80;1.73;;;24.30;99.90;;;;;;5076022;28;21421;-79
2022/06/25 12:50:36;;;;;;;2.85;1.70;;;24.50;99.90;;;;;;5088675;28;20178;-79
2022/06/25 12:53:16;;;;;;;3.42;1.88;;;24.60;99.90;;;;;;5090258;28;20036;-78
2022/06/25 12:55:49;;;;;;;2.38;1.83;;;24.70;99.90;;;;;;5084167;28;20058;-78
2022/06/25 12:58:16;;;;;;;2.67;1.63;;;24.60;99.90;;;;;;5075882;28;20531;-79
2022/06/25 13:00:44;;;;;;;2.10;1.70;;;24.60;99.90;;;;;;5095787;28;20071;-78
2022/06/25 13:03:10;;;;;;;3.45;1.90;;;24.60;99.90;;;;;;5102947;28;20427;-78
2022/06/25 13:05:36;;;;;;;3.80;2.10;;;24.80;99.90;;;;;;5091845;28;20047;-78